Venedocia, OH (45894)

5:24 PM EST on February 05, 2016 (GMT -0500)
N1ICS - Ridge Township, OH | | Change Station
CLOSE
Current Station
Personal Weather Station
Location: Van Wert, OH
Elevation: 784 ft
Nearby Weather Stations

Elev 784 ft 40.85 °N, 84.48 °W | Updated 4 minutes ago

Overcast
Overcast
34.7 °F
Feels Like 29 °F
N
6.5
Wind Variable Wind from WSW
Gusts 7.0 mph

Today
High -- | Low -- °F
--% Chance of Precip.
Yesterday
High -- | Low -- °F
Precip. -- in
Pressure 30.34 in
Visibility 10.0 miles
Clouds Overcast 6000 ft
Windchill 29 °F
Dew Point 18 °F
Humidity 51%
Rainfall 0.02 in
Snow Depth Not available.
7:44 AM 6:00 PM
Waning Crescent, 9% visible
METAR KAOH 052153Z AUTO 20008KT 10SM OVC060 03/M06 A3030 RMK AO2 SLP272 T00281056
Pressure 30.34 in
Visibility 10.0 miles
Clouds Overcast 6000 ft
Windchill 29 °F
Dew Point 18 °F
Humidity 51%
Rainfall 0.02 in
Snow Depth Not available.
7:44 AM 6:00 PM
Waning Crescent, 9% visible
METAR KAOH 052153Z AUTO 20008KT 10SM OVC060 03/M06 A3030 RMK AO2 SLP272 T00281056

10-Day Weather Forecast

Almanac

Astronomy

Feb. 05, 2016 Rise Set
Actual Time
Civil Twilight
Nautical Twilight
Astronomical Twilight
Moon
Length of Visible Light
Length of Day
Tomorrow will be .
, % of the Moon is Illuminated

Today's Extremes

State Highs State Lows

Community

WunderPhotos

Upload Photos

1,890,878 photos uploaded!

WunderBlog® & News

Nearby

Air Quality

  Air Quality AQ Index Pollutant
Not available.

Snow Depth

Station Depth Elevation

Earthquake Activity

City Distance Mag. Time & Date
Minimum magnitude displayed is 2.5.

Coastal Water Temperatures

Place Temperature

Stations

Nearby Weather Stations

Station Location Temp. Windchill Dew Point Humidity Wind Precip. Elev Updated Type
                   

Watches & Warnings

There are currently no watches in effect.